createdAt,value
2022-12-15T00:00:33.799Z,25.13
2022-12-15T00:03:25.241Z,23.93
2022-12-15T00:06:11.572Z,24.83
2022-12-15T00:08:57.519Z,25.40
2022-12-15T00:11:43.453Z,24.73
2022-12-15T00:14:30.852Z,26.73
2022-12-15T00:17:16.905Z,29.50
2022-12-15T00:20:02.751Z,23.63
2022-12-15T00:22:48.677Z,29.20
2022-12-15T00:25:34.595Z,25.37
2022-12-15T00:28:20.353Z,31.20
2022-12-15T00:31:07.512Z,28.20
2022-12-15T00:33:53.342Z,28.07
2022-12-15T00:36:39.239Z,26.10
2022-12-15T00:39:07.611Z,24.00
2022-12-15T00:41:35.966Z,25.93
2022-12-15T00:44:04.523Z,25.73
2022-12-15T00:46:51.570Z,25.93
2022-12-15T00:49:37.505Z,24.60
2022-12-15T00:52:23.816Z,28.97
2022-12-15T00:55:09.755Z,26.00
2022-12-15T00:57:55.891Z,24.83
2022-12-15T01:00:42.642Z,22.87
2022-12-15T01:03:33.162Z,25.37
2022-12-15T01:06:19.541Z,22.03
2022-12-15T01:09:05.619Z,30.00
2022-12-15T01:11:51.471Z,25.90
2022-12-15T01:14:37.402Z,22.10
2022-12-15T01:17:23.375Z,25.27
2022-12-15T01:20:10.290Z,21.93
2022-12-15T01:22:39.122Z,26.63
2022-12-15T01:25:09.805Z,23.23
2022-12-15T01:27:38.431Z,25.40
2022-12-15T01:30:10.672Z,25.60
2022-12-15T01:32:44.287Z,27.43
2022-12-15T01:35:16.058Z,25.33
2022-12-15T01:37:44.655Z,25.10
2022-12-15T01:40:43.162Z,22.23
2022-12-15T01:43:15.411Z,27.50
2022-12-15T01:46:02.331Z,26.73
2022-12-15T01:48:37.826Z,23.67
2022-12-15T01:51:14.989Z,22.33
2022-12-15T01:53:50.834Z,21.60
2022-12-15T01:56:21.015Z,27.87
2022-12-15T01:58:52.595Z,28.30
2022-12-15T02:01:21.133Z,21.33
2022-12-15T02:03:50.319Z,20.53
2022-12-15T02:06:22.801Z,21.17
2022-12-15T02:08:54.268Z,26.37
2022-12-15T02:11:58.312Z,22.80
2022-12-15T02:14:45.734Z,26.13
2022-12-15T02:17:29.467Z,22.73
2022-12-15T02:20:42.882Z,27.57
2022-12-15T02:24:00.928Z,20.47
2022-12-15T02:27:05.199Z,20.77
2022-12-15T02:30:19.621Z,21.33
2022-12-15T02:33:08.577Z,23.67
2022-12-15T02:35:53.979Z,27.73
2022-12-15T02:38:37.184Z,26.90
2022-12-15T02:41:07.691Z,23.03
2022-12-15T02:43:40.044Z,23.53
2022-12-15T02:46:22.701Z,31.57
2022-12-15T02:49:05.728Z,26.70
2022-12-15T02:51:49.143Z,28.83
2022-12-15T02:54:39.938Z,27.43
2022-12-15T02:57:19.777Z,23.37
2022-12-15T02:59:55.953Z,25.77
2022-12-15T03:02:29.846Z,24.57
2022-12-15T03:04:59.034Z,24.30
2022-12-15T03:07:29.241Z,25.63
2022-12-15T03:09:59.138Z,28.00
2022-12-15T03:12:27.733Z,30.73
2022-12-15T03:14:56.136Z,29.33
2022-12-15T03:17:25.969Z,23.13
2022-12-15T03:19:54.371Z,24.17
2022-12-15T03:22:22.926Z,25.07
2022-12-15T03:24:51.293Z,25.07
2022-12-15T03:27:19.688Z,23.13
2022-12-15T03:29:48.046Z,25.27
2022-12-15T03:32:16.529Z,23.43
2022-12-15T03:34:46.294Z,24.53
2022-12-15T03:37:14.938Z,25.43
2022-12-15T03:39:43.269Z,24.43
2022-12-15T03:42:11.679Z,24.23
2022-12-15T03:44:40.000Z,24.93
2022-12-15T03:47:08.519Z,25.10
2022-12-15T03:49:36.914Z,23.67
2022-12-15T03:52:06.876Z,22.97
2022-12-15T03:54:35.432Z,24.90
2022-12-15T03:57:03.794Z,22.00
2022-12-15T03:59:32.120Z,23.10
2022-12-15T04:02:00.648Z,27.23
2022-12-15T04:04:29.274Z,26.37
2022-12-15T04:06:57.626Z,27.07
2022-12-15T04:09:27.392Z,24.10
2022-12-15T04:11:55.775Z,24.30
2022-12-15T04:14:24.147Z,23.80
2022-12-15T04:16:52.579Z,23.87
2022-12-15T04:19:38.448Z,22.70
2022-12-15T04:22:06.880Z,24.77
2022-12-15T04:24:53.980Z,24.40
2022-12-15T04:27:42.898Z,27.20
2022-12-15T04:30:31.583Z,23.00
2022-12-15T04:33:18.437Z,23.10
2022-12-15T04:36:04.828Z,19.77
2022-12-15T04:38:50.877Z,21.67
2022-12-15T04:41:39.994Z,20.37
2022-12-15T04:44:26.493Z,23.23
2022-12-15T04:47:12.270Z,22.27
2022-12-15T04:49:58.013Z,22.60
2022-12-15T04:52:43.920Z,26.67
2022-12-15T04:55:29.806Z,25.37
2022-12-15T04:58:16.877Z,24.23
2022-12-15T05:01:02.791Z,23.60
2022-12-15T05:03:48.708Z,23.60
2022-12-15T05:06:34.634Z,22.40
2022-12-15T05:09:20.293Z,22.53
2022-12-15T05:12:06.235Z,22.17
2022-12-15T05:14:53.540Z,19.47
2022-12-15T05:17:41.717Z,22.03
2022-12-15T05:20:28.594Z,25.70
2022-12-15T05:23:14.982Z,21.87
2022-12-15T05:26:01.282Z,18.17
2022-12-15T05:28:47.692Z,22.93
2022-12-15T05:31:34.836Z,25.43
2022-12-15T05:34:05.700Z,32.23
2022-12-15T05:36:34.777Z,32.63
2022-12-15T05:39:03.191Z,29.50
2022-12-15T05:41:31.612Z,26.87
2022-12-15T05:44:00.067Z,25.63
2022-12-15T05:46:29.948Z,22.07
2022-12-15T05:48:58.466Z,25.33
2022-12-15T05:51:26.823Z,23.60
2022-12-15T05:53:55.958Z,23.43
2022-12-15T05:56:24.385Z,24.63
2022-12-15T05:58:52.824Z,23.40
2022-12-15T06:01:22.316Z,25.60
2022-12-15T06:03:52.453Z,23.23
2022-12-15T06:06:21.709Z,24.20
2022-12-15T06:08:50.317Z,21.53
2022-12-15T06:11:20.803Z,22.47
2022-12-15T06:13:49.306Z,20.50
2022-12-15T06:16:19.798Z,23.83
2022-12-15T06:18:51.773Z,23.20
2022-12-15T06:21:23.667Z,26.87
2022-12-15T06:23:52.478Z,21.83
2022-12-15T06:26:22.638Z,30.23
2022-12-15T06:28:51.765Z,25.67
2022-12-15T06:31:22.832Z,27.67
2022-12-15T06:33:59.260Z,24.37
2022-12-15T06:36:31.063Z,24.43
2022-12-15T06:39:01.591Z,25.63
2022-12-15T06:41:31.042Z,24.13
2022-12-15T06:44:00.303Z,24.17
2022-12-15T06:46:31.514Z,21.80
2022-12-15T06:49:01.692Z,22.70
2022-12-15T06:51:30.413Z,22.40
2022-12-15T06:53:58.816Z,23.07
2022-12-15T06:56:34.216Z,26.30
2022-12-15T06:59:04.366Z,26.30
2022-12-15T07:01:33.814Z,26.63
2022-12-15T07:04:05.820Z,24.23
2022-12-15T07:06:37.633Z,25.50
2022-12-15T07:09:10.492Z,21.47
2022-12-15T07:11:38.980Z,26.43
2022-12-15T07:14:07.378Z,25.17
2022-12-15T07:16:35.835Z,21.07
2022-12-15T07:19:05.708Z,22.77
2022-12-15T07:21:34.195Z,28.10
2022-12-15T07:24:03.032Z,22.00
2022-12-15T07:26:31.664Z,24.83
2022-12-15T07:29:00.133Z,25.40
2022-12-15T07:31:28.582Z,25.93
2022-12-15T07:33:58.514Z,27.03
2022-12-15T07:36:33.168Z,25.17
2022-12-15T07:39:02.582Z,26.07
2022-12-15T07:41:31.420Z,24.13
2022-12-15T07:44:00.121Z,29.27
2022-12-15T07:46:29.207Z,33.30
2022-12-15T07:48:57.677Z,40.17
2022-12-15T07:51:26.090Z,36.50
2022-12-15T07:53:55.825Z,41.13
2022-12-15T07:56:24.304Z,47.67
2022-12-15T07:58:53.295Z,45.13
2022-12-15T08:01:21.820Z,41.07
2022-12-15T08:03:50.412Z,40.80
2022-12-15T08:06:18.795Z,40.00
2022-12-15T08:08:50.549Z,35.17
2022-12-15T08:11:24.619Z,38.87
2022-12-15T08:14:02.733Z,36.23
2022-12-15T08:16:32.009Z,40.40
2022-12-15T08:19:00.670Z,40.20
2022-12-15T08:21:31.261Z,37.63
2022-12-15T08:24:00.843Z,52.23
2022-12-15T08:26:31.602Z,46.37
2022-12-15T08:29:40.424Z,51.60
2022-12-15T08:31:53.318Z,44.10
2022-12-15T08:34:22.335Z,37.23
2022-12-15T08:36:50.778Z,38.27
2022-12-15T08:39:20.380Z,40.57
2022-12-15T08:41:50.917Z,38.30
2022-12-15T08:44:19.288Z,35.07
2022-12-15T08:46:47.680Z,35.50
2022-12-15T08:49:21.497Z,31.57
2022-12-15T08:51:51.527Z,36.27
2022-12-15T08:54:21.216Z,42.53
2022-12-15T08:56:51.372Z,45.50
2022-12-15T08:59:20.282Z,39.70
2022-12-15T09:01:48.861Z,42.30
2022-12-15T09:04:17.726Z,41.00
2022-12-15T09:06:50.563Z,34.33
2022-12-15T09:09:20.082Z,36.03
2022-12-15T09:11:50.108Z,37.30
2022-12-15T09:14:22.943Z,32.77
2022-12-15T09:16:57.279Z,32.50
2022-12-15T09:19:26.383Z,26.30
2022-12-15T09:21:54.772Z,27.73
2022-12-15T09:24:34.017Z,24.50
2022-12-15T09:27:05.483Z,20.60
2022-12-15T09:29:35.034Z,21.07
2022-12-15T09:32:07.633Z,19.23
2022-12-15T09:34:39.505Z,22.93
2022-12-15T09:37:07.924Z,24.17
2022-12-15T09:39:37.912Z,19.40
2022-12-15T09:42:07.692Z,20.57
2022-12-15T09:44:36.056Z,21.77
2022-12-15T09:47:18.811Z,23.17
2022-12-15T09:49:56.533Z,25.80
2022-12-15T09:52:29.072Z,20.50
2022-12-15T09:54:58.321Z,20.13
2022-12-15T09:57:37.626Z,21.80
2022-12-15T10:00:22.477Z,21.70
2022-12-15T10:03:23.126Z,21.67
2022-12-15T10:06:20.067Z,19.93
2022-12-15T10:09:04.253Z,21.37
2022-12-15T10:11:50.214Z,24.37
2022-12-15T10:14:32.994Z,24.30
2022-12-15T10:17:08.457Z,23.57
2022-12-15T10:19:42.602Z,22.03
2022-12-15T10:22:15.282Z,25.43
2022-12-15T10:25:09.219Z,18.77
2022-12-15T10:27:57.186Z,20.60
2022-12-15T10:30:27.052Z,20.33
2022-12-15T10:33:04.047Z,22.97
2022-12-15T10:35:34.674Z,17.87
2022-12-15T10:38:05.996Z,18.67
2022-12-15T10:40:50.178Z,19.77
2022-12-15T10:43:29.418Z,16.47
2022-12-15T10:46:06.708Z,18.97
2022-12-15T10:48:35.152Z,16.67
2022-12-15T10:51:20.483Z,19.70
2022-12-15T10:53:51.208Z,18.83
2022-12-15T10:56:30.682Z,17.40
2022-12-15T10:59:04.820Z,20.10
2022-12-15T11:01:36.157Z,17.77
2022-12-15T11:04:04.856Z,17.33
2022-12-15T11:06:36.838Z,16.00
2022-12-15T11:09:34.182Z,20.90
2022-12-15T11:12:20.574Z,17.23
2022-12-15T11:14:51.294Z,18.47
2022-12-15T11:17:43.017Z,19.13
2022-12-15T11:20:22.142Z,18.97
2022-12-15T11:22:57.996Z,19.30
2022-12-15T11:25:36.548Z,18.10
2022-12-15T11:28:14.552Z,19.67
2022-12-15T11:30:48.759Z,23.03
2022-12-15T11:33:19.890Z,20.40
2022-12-15T11:36:09.645Z,22.07
2022-12-15T11:38:46.132Z,19.70
2022-12-15T11:41:36.327Z,20.93
2022-12-15T11:44:28.076Z,17.13
2022-12-15T11:47:09.430Z,20.13
2022-12-15T11:50:10.375Z,19.93
2022-12-15T11:52:55.750Z,17.37
2022-12-15T11:55:39.181Z,16.73
2022-12-15T11:58:37.671Z,14.23
2022-12-15T12:01:15.121Z,17.97
2022-12-15T12:03:56.973Z,18.27
2022-12-15T12:06:38.142Z,18.07
2022-12-15T12:09:32.052Z,20.17
2022-12-15T12:12:17.863Z,24.87
2022-12-15T12:14:57.955Z,22.23
2022-12-15T12:17:39.762Z,23.13
2022-12-15T12:20:18.638Z,27.50
2022-12-15T12:22:59.852Z,28.33
2022-12-15T12:25:28.810Z,25.70
2022-12-15T12:28:02.127Z,31.77
2022-12-15T12:30:36.410Z,26.83
2022-12-15T12:33:14.164Z,23.50
2022-12-15T12:38:46.207Z,23.33
2022-12-15T12:41:31.939Z,25.43
2022-12-15T12:44:05.780Z,18.07
2022-12-15T12:46:41.645Z,17.57
2022-12-15T12:49:24.612Z,20.97
2022-12-15T12:51:58.679Z,21.43
2022-12-15T12:54:52.695Z,23.77
2022-12-15T12:57:37.497Z,19.90
2022-12-15T13:00:23.537Z,20.17
2022-12-15T13:03:14.646Z,21.93
2022-12-15T13:05:43.964Z,20.77
2022-12-15T13:12:20.759Z,18.00
2022-12-15T13:17:44.073Z,20.97
2022-12-15T13:20:28.507Z,22.50
2022-12-15T13:23:34.125Z,20.50
2022-12-15T13:26:13.892Z,19.33
2022-12-15T13:28:52.238Z,23.90
2022-12-15T13:31:56.448Z,23.37
2022-12-15T13:34:27.894Z,23.97
2022-12-15T13:36:59.531Z,21.73
2022-12-15T13:39:59.223Z,23.50
2022-12-15T13:42:52.923Z,23.50
2022-12-15T13:45:51.488Z,23.10
2022-12-15T13:48:33.875Z,21.77
2022-12-15T13:51:23.204Z,24.73
2022-12-15T13:53:58.958Z,22.20
2022-12-15T13:56:47.503Z,25.80
2022-12-15T13:59:40.871Z,22.30
2022-12-15T14:02:27.375Z,23.27
2022-12-15T14:05:16.130Z,22.90
2022-12-15T14:07:54.173Z,22.93
2022-12-15T14:10:26.017Z,22.53
2022-12-15T14:12:57.952Z,26.67
2022-12-15T14:15:31.412Z,24.93
2022-12-15T14:18:03.326Z,25.10
2022-12-15T14:20:40.487Z,23.93
2022-12-15T14:23:20.195Z,20.63
2022-12-15T14:25:57.487Z,21.93
2022-12-15T14:28:30.211Z,20.67
2022-12-15T14:31:02.586Z,24.30
2022-12-15T14:33:37.151Z,21.87
2022-12-15T14:36:10.086Z,24.63
2022-12-15T14:38:45.064Z,20.40
2022-12-15T14:41:21.620Z,21.07
2022-12-15T14:44:31.765Z,22.03
2022-12-15T14:46:39.868Z,21.53
2022-12-15T14:49:15.931Z,20.73
2022-12-15T14:51:48.061Z,20.80
2022-12-15T14:54:32.014Z,19.83
2022-12-15T14:57:02.005Z,22.47
2022-12-15T14:59:35.041Z,21.97
2022-12-15T15:02:22.837Z,23.30
2022-12-15T15:03:10.108Z,25.63
2022-12-15T15:03:10.364Z,19.90
2022-12-15T15:03:10.789Z,21.43
2022-12-15T15:05:05.636Z,21.63
2022-12-15T15:07:35.900Z,22.37
2022-12-15T15:10:21.471Z,20.57
2022-12-15T15:12:50.803Z,23.03
2022-12-15T15:15:21.803Z,19.57
2022-12-15T15:17:53.265Z,22.93
2022-12-15T15:20:26.840Z,20.90
2022-12-15T15:23:17.123Z,19.37
2022-12-15T15:25:54.973Z,20.73
2022-12-15T15:28:26.685Z,22.27
2022-12-15T15:30:57.493Z,20.20
2022-12-15T15:33:27.381Z,24.50
2022-12-15T15:35:59.135Z,24.83
2022-12-15T15:38:33.470Z,24.13
2022-12-15T15:41:15.482Z,23.30
2022-12-15T15:43:44.124Z,23.43
2022-12-15T15:46:14.599Z,28.17
2022-12-15T15:48:49.034Z,25.50
2022-12-15T15:51:19.628Z,27.13
2022-12-15T15:53:48.485Z,20.60
2022-12-15T15:56:18.526Z,23.30
2022-12-15T15:58:46.970Z,24.67
2022-12-15T16:01:18.512Z,29.27
2022-12-15T16:03:47.056Z,21.67
2022-12-15T16:06:20.622Z,20.70
2022-12-15T16:08:53.632Z,18.73
2022-12-15T16:11:23.782Z,23.43
2022-12-15T16:13:52.116Z,24.23
2022-12-15T16:16:24.651Z,24.03
2022-12-15T16:18:53.021Z,20.37
2022-12-15T16:21:27.689Z,21.10
2022-12-15T16:23:58.185Z,20.97
2022-12-15T16:26:29.324Z,22.57
2022-12-15T16:28:57.796Z,20.73
2022-12-15T16:31:37.372Z,21.10
2022-12-15T16:34:09.208Z,19.70
2022-12-15T16:36:39.228Z,19.70
2022-12-15T16:39:25.373Z,18.60
2022-12-15T16:41:56.248Z,19.90
2022-12-15T16:44:27.441Z,20.47
2022-12-15T16:46:57.013Z,20.10
2022-12-15T16:49:25.711Z,17.57
2022-12-15T16:51:56.281Z,16.33
2022-12-15T16:54:27.760Z,20.73
2022-12-15T16:56:58.100Z,20.07
2022-12-15T16:59:35.876Z,22.97
2022-12-15T17:02:29.309Z,18.40
2022-12-15T17:04:58.696Z,19.63
2022-12-15T17:07:29.544Z,19.73
2022-12-15T17:09:58.113Z,17.57
2022-12-15T17:12:26.686Z,18.40
2022-12-15T17:14:58.591Z,20.17
2022-12-15T17:17:27.707Z,16.70
2022-12-15T17:20:27.908Z,15.80
2022-12-15T17:22:47.704Z,18.67
2022-12-15T17:25:53.399Z,14.10
2022-12-15T17:28:18.397Z,15.13
2022-12-15T17:30:47.854Z,19.33
2022-12-15T17:33:21.437Z,16.07
2022-12-15T17:35:52.557Z,16.33
2022-12-15T17:38:24.294Z,16.77
2022-12-15T17:40:53.944Z,15.13
2022-12-15T17:43:28.147Z,17.40
2022-12-15T17:46:00.338Z,19.70
2022-12-15T17:48:28.740Z,17.87
2022-12-15T17:50:57.154Z,20.43
2022-12-15T17:53:27.185Z,21.03
2022-12-15T17:55:55.942Z,19.77
2022-12-15T17:58:27.368Z,18.73
2022-12-15T18:00:57.719Z,18.57
2022-12-15T18:03:26.230Z,17.07
2022-12-15T18:05:55.481Z,15.20
2022-12-15T18:08:27.524Z,16.83
2022-12-15T18:10:58.329Z,15.53
2022-12-15T18:13:34.837Z,15.70
2022-12-15T18:16:04.027Z,17.60
2022-12-15T18:18:34.865Z,16.67
2022-12-15T18:21:13.816Z,16.70
2022-12-15T18:23:44.974Z,17.03
2022-12-15T18:26:14.600Z,16.10
2022-12-15T18:28:43.948Z,17.50
2022-12-15T18:31:21.165Z,17.63
2022-12-15T18:33:50.067Z,17.83
2022-12-15T18:36:19.068Z,19.70
2022-12-15T18:38:49.033Z,18.47
2022-12-15T18:41:21.075Z,18.30
2022-12-15T18:43:49.549Z,18.90
2022-12-15T18:46:21.139Z,17.20
2022-12-15T18:48:49.507Z,21.20
2022-12-15T18:51:20.177Z,21.63
2022-12-15T18:53:50.166Z,22.10
2022-12-15T18:56:21.563Z,17.83
2022-12-15T18:58:50.066Z,15.90
2022-12-15T19:01:18.625Z,17.53
2022-12-15T19:03:47.111Z,15.40
2022-12-15T19:06:26.212Z,19.47
2022-12-15T19:08:56.062Z,19.77
2022-12-15T19:11:31.039Z,17.77
2022-12-15T19:14:00.403Z,18.70
2022-12-15T19:16:50.514Z,20.80
2022-12-15T19:19:36.564Z,21.00
2022-12-15T19:22:29.904Z,20.33
2022-12-15T19:24:59.837Z,17.10
2022-12-15T19:27:28.815Z,21.53
2022-12-15T19:29:57.427Z,17.73
2022-12-15T19:32:26.807Z,15.93
2022-12-15T19:34:55.107Z,17.13
2022-12-15T19:37:28.010Z,17.30
2022-12-15T19:40:00.266Z,19.07
2022-12-15T19:42:33.577Z,20.67
2022-12-15T19:45:02.602Z,18.93
2022-12-15T19:47:31.041Z,18.00
2022-12-15T19:49:59.419Z,17.37
2022-12-15T19:52:28.401Z,17.90
2022-12-15T19:54:56.756Z,16.73
2022-12-15T19:57:26.501Z,20.03
2022-12-15T19:59:55.119Z,16.53
2022-12-15T20:02:23.490Z,19.47
2022-12-15T20:04:52.044Z,19.53
2022-12-15T20:07:25.688Z,18.20
2022-12-15T20:09:54.087Z,18.87
2022-12-15T20:12:22.705Z,22.93
2022-12-15T20:14:52.535Z,22.03
2022-12-15T20:17:21.048Z,22.17
2022-12-15T20:19:49.400Z,17.83
2022-12-15T20:22:19.467Z,22.80
2022-12-15T20:24:49.016Z,18.80
2022-12-15T20:27:19.831Z,18.83
2022-12-15T20:29:48.225Z,22.27
2022-12-15T20:32:21.675Z,19.93
2022-12-15T20:34:50.171Z,19.73
2022-12-15T20:37:22.186Z,20.93
2022-12-15T20:39:56.944Z,17.47
2022-12-15T20:42:25.958Z,21.57
2022-12-15T20:44:54.523Z,21.60
2022-12-15T20:47:27.540Z,21.73
2022-12-15T20:49:56.559Z,20.13
2022-12-15T20:52:27.809Z,23.13
2022-12-15T20:54:56.479Z,21.07
2022-12-15T20:57:24.856Z,27.60
2022-12-15T20:59:53.143Z,21.87
2022-12-15T21:02:25.425Z,26.07
2022-12-15T21:04:55.190Z,24.17
2022-12-15T21:07:23.508Z,29.50
2022-12-15T21:09:51.880Z,28.63
2022-12-15T21:12:22.898Z,32.03
2022-12-15T21:14:51.645Z,37.03
2022-12-15T21:17:23.268Z,36.50
2022-12-15T21:19:54.860Z,31.50
2022-12-15T21:22:26.477Z,32.00
2022-12-15T21:24:58.503Z,26.03
2022-12-15T21:27:26.774Z,27.43
2022-12-15T21:29:55.073Z,24.77
2022-12-15T21:32:23.385Z,23.47
2022-12-15T21:34:53.077Z,21.00
2022-12-15T21:37:28.261Z,21.80
2022-12-15T21:39:57.496Z,21.20
2022-12-15T21:42:27.263Z,21.90
2022-12-15T21:44:55.630Z,18.80
2022-12-15T21:47:46.669Z,18.37
2022-12-15T21:50:15.729Z,19.70
2022-12-15T21:52:45.235Z,19.77
2022-12-15T21:55:16.815Z,19.77
2022-12-15T21:57:45.413Z,20.33
2022-12-15T22:00:16.803Z,18.90
2022-12-15T22:02:46.258Z,18.87
2022-12-15T22:05:20.202Z,18.03
2022-12-15T22:07:49.063Z,19.23
2022-12-15T22:10:19.236Z,18.43
2022-12-15T22:12:59.099Z,20.93
2022-12-15T22:15:29.826Z,19.83
2022-12-15T22:17:58.169Z,20.03
2022-12-15T22:20:27.866Z,18.33
2022-12-15T22:22:56.188Z,18.93
2022-12-15T22:25:26.491Z,20.97
2022-12-15T22:27:55.165Z,15.53
2022-12-15T22:30:27.354Z,19.00
2022-12-15T22:32:55.797Z,18.20
2022-12-15T22:35:27.500Z,18.37
2022-12-15T22:37:56.372Z,17.70
2022-12-15T22:40:25.472Z,18.40
2022-12-15T22:42:57.699Z,20.67
2022-12-15T22:45:26.245Z,18.30
2022-12-15T22:47:55.317Z,16.83
2022-12-15T22:50:27.609Z,16.07
2022-12-15T22:52:55.918Z,15.33
2022-12-15T22:55:25.416Z,16.33
2022-12-15T22:58:00.850Z,17.57
2022-12-15T23:00:29.180Z,16.40
2022-12-15T23:02:59.685Z,16.63
2022-12-15T23:05:29.613Z,19.77
2022-12-15T23:07:58.100Z,19.07
2022-12-15T23:10:40.368Z,17.63
2022-12-15T23:13:08.831Z,15.23
2022-12-15T23:15:54.739Z,19.53
2022-12-15T23:18:23.321Z,14.83
2022-12-15T23:20:53.983Z,16.50
2022-12-15T23:23:23.017Z,17.80
2022-12-15T23:25:51.312Z,16.67
2022-12-15T23:28:19.684Z,16.00
2022-12-15T23:30:50.805Z,15.33
2022-12-15T23:33:19.722Z,14.63
2022-12-15T23:35:48.826Z,16.13
2022-12-15T23:38:18.506Z,15.23
2022-12-15T23:40:52.544Z,14.57
2022-12-15T23:43:22.433Z,15.30
2022-12-15T23:45:58.469Z,15.70
2022-12-15T23:48:31.824Z,14.20
2022-12-15T23:51:11.298Z,17.40
2022-12-15T23:53:42.179Z,16.40
2022-12-15T23:56:12.997Z,15.97
2022-12-15T23:58:43.130Z,17.23
